Terminal Aerodrome Forecast
Issued by NWS Mt. Holly, NJ

Home | Current Version | Previous Version | Text Only | Print | Product List | Glossary On
Versions: 1 2 3 4 5 6 7 8 9 10 11 12 13 14 15 16 17 18 19 20 21 22 23 24 25 26 27 28 29 30 31 32 33 34 35 36 37 38 39 40 41 42 43 44 45 46 47 48 49
480
FTUS41 KPHI 131724
TAFABE
TAF
KABE 131724Z 1318/1418 29018G30KT P6SM SCT050
     FM132000 28015G23KT P6SM BKN050
     FM132300 26007KT P6SM BKN050 OVC100
     FM140300 VRB03KT 5SM -SN BKN015 OVC025
     FM140500 VRB03KT 1SM -SN SCT008 OVC015
     FM141200 35006KT 5SM -SN SCT015 OVC025
     FM141400 33008KT P6SM SCT025 OVC050
     FM141600 33014G22KT P6SM FEW050 SCT250=

USA.gov is the U.S. government's official web portal to all federal, state and local government web resources and services.